Parksley, Virginia
Current Conditions -  °F | °C
As of 9:35 PM on Wednesday 26 Nov 2014 (Local Time) from KMFV Reporting Station
Overcast Overcast  
Wind Chill: 33°   Ceiling: 1200
Heat Index: 41°   Visibility: 10mi
Dew Point: 36°   Wind: 15mph
Humidity: 81%   Direction: 330°NNW
Pressure: 29.96"   Gusts: 22mph
Location:  37.78°N, 75.65°W
Report Text: KMFV 270235Z AUTO 33013G19KT 10SM OVC012 05/02 A2996 RMK AO2
Loading
Personal Weather Stations






























Interactive Weather Map New forecast layout! Learn more

10-Day Weather Forecast

Advertisements
Track Severe Weather on mobile